Time;durP1;ratioP1;P1;durP2;ratioP2;P2;SDS_P1;SDS_P2;PMS_P1;PMS_P2;Temp;Humidity;BMP_temperature;BMP_pressure;BME280_temperature;BME280_humidity;BME280_pressure;Samples;Min_cycle;Max_cycle;Signal;HPM_P1;HPM_P2
2021/10/02 00:46:10;;;;;;;9.05;2.83;;;;;;;;;;5003833;28;20515;-58
2021/10/02 00:48:36;;;;;;;8.50;2.40;;;;;;;;;;5015465;28;20045;-57
2021/10/02 00:51:01;;;;;;;8.10;2.92;;;;;;;;;;5013654;28;20046;-58
2021/10/02 00:53:26;;;;;;;12.30;3.50;;;;;;;;;;5017322;28;20017;-58
2021/10/02 00:55:52;;;;;;;5.43;2.45;;;;;;;;;;5032197;28;20034;-58
2021/10/02 00:58:17;;;;;;;9.30;2.88;;;;;;;;;;5009180;28;20353;-58
2021/10/02 01:00:45;;;;;;;8.50;3.28;;;;;;;;;;5006464;28;20488;-61
2021/10/02 01:03:30;;;;;;;5.88;2.65;;;;;;;;;;5022247;28;20577;-58
2021/10/02 01:06:06;;;;;;;7.22;2.60;;;;;;;;;;5016227;28;20048;-58
2021/10/02 01:08:31;;;;;;;5.75;2.58;;;;;;;;;;5021076;28;20019;-58
2021/10/02 01:10:59;;;;;;;5.70;2.42;;;;;;;;;;5009232;28;20042;-58
2021/10/02 01:13:24;;;;;;;5.82;2.60;;;;;;;;;;5010220;28;20029;-58
2021/10/02 01:15:51;;;;;;;8.95;2.53;;;;;;;;;;5021607;28;20041;-58
2021/10/02 01:18:17;;;;;;;7.38;2.50;;;;;;;;;;5035187;28;20026;-59
2021/10/02 01:20:42;;;;;;;4.00;2.00;;;;;;;;;;5019100;28;20554;-58
2021/10/02 01:23:25;;;;;;;9.35;2.70;;;;;;;;;;5018548;28;20051;-58
2021/10/02 01:26:05;;;;;;;7.35;2.70;;;;;;;;;;5029486;28;20029;-58
2021/10/02 01:28:30;;;;;;;6.68;2.63;;;;;;;;;;5020299;28;20021;-58
2021/10/02 01:36:43;;;;;;;9.82;3.05;;;;;;;;;;5015954;28;20450;-59
2021/10/02 01:47:24;;;;;;;8.63;3.05;;;;;;;;;;5016225;28;20379;-58
2021/10/02 01:49:53;;;;;;;6.72;2.80;;;;;;;;;;5019070;28;20654;-58
2021/10/02 01:52:38;;;;;;;8.05;2.67;;;;;;;;;;5014253;28;20065;-58
2021/10/02 01:55:06;;;;;;;9.70;2.78;;;;;;;;;;5018111;28;20459;-58
2021/10/02 01:57:34;;;;;;;6.47;2.63;;;;;;;;;;5022013;28;20022;-58
2021/10/02 02:00:03;;;;;;;7.00;2.70;;;;;;;;;;5033071;28;20051;-58
2021/10/02 02:02:29;;;;;;;6.88;2.80;;;;;;;;;;5008677;28;20041;-58
2021/10/02 02:04:54;;;;;;;7.60;3.03;;;;;;;;;;5026153;28;20024;-58
2021/10/02 02:07:21;;;;;;;6.82;2.92;;;;;;;;;;5027067;28;20399;-58
2021/10/02 02:09:46;;;;;;;9.77;2.92;;;;;;;;;;5018129;28;20026;-58
2021/10/02 02:12:12;;;;;;;8.05;3.47;;;;;;;;;;5003263;28;20045;-58
2021/10/02 02:14:37;;;;;;;5.07;2.90;;;;;;;;;;5004403;28;20052;-58
2021/10/02 02:17:03;;;;;;;7.10;3.03;;;;;;;;;;4999271;28;20456;-58
2021/10/02 02:19:28;;;;;;;7.50;2.83;;;;;;;;;;4992920;28;20026;-58
2021/10/02 02:21:53;;;;;;;5.80;2.75;;;;;;;;;;5001650;28;20550;-58
2021/10/02 02:24:18;;;;;;;7.43;3.20;;;;;;;;;;4997104;28;20049;-58
2021/10/02 02:26:44;;;;;;;9.77;3.40;;;;;;;;;;4999609;28;20053;-58
2021/10/02 02:29:09;;;;;;;6.68;2.92;;;;;;;;;;4994761;28;20061;-58
2021/10/02 02:31:35;;;;;;;8.57;2.72;;;;;;;;;;5005258;28;20046;-58
2021/10/02 02:34:00;;;;;;;6.30;2.85;;;;;;;;;;5002210;28;20105;-58
2021/10/02 02:36:25;;;;;;;5.47;2.83;;;;;;;;;;5002651;28;20031;-58
2021/10/02 02:38:51;;;;;;;4.78;2.60;;;;;;;;;;4990199;28;20030;-57
2021/10/02 02:41:16;;;;;;;5.13;2.63;;;;;;;;;;4995040;28;20594;-58
2021/10/02 02:43:41;;;;;;;9.60;3.20;;;;;;;;;;4996176;28;20520;-57
2021/10/02 02:46:08;;;;;;;9.10;3.58;;;;;;;;;;4998083;28;20046;-58
2021/10/02 02:48:36;;;;;;;4.97;2.95;;;;;;;;;;5002622;28;20054;-57
2021/10/02 02:51:08;;;;;;;5.93;2.88;;;;;;;;;;5012058;28;20038;-58
2021/10/02 02:53:33;;;;;;;8.73;3.05;;;;;;;;;;4996377;28;20026;-57
2021/10/02 02:56:03;;;;;;;6.60;2.75;;;;;;;;;;4993506;28;20793;-57
2021/10/02 02:58:28;;;;;;;8.88;3.30;;;;;;;;;;5016197;28;20018;-57
2021/10/02 03:00:56;;;;;;;7.47;3.30;;;;;;;;;;4996410;28;20519;-57
2021/10/02 03:03:22;;;;;;;6.50;3.53;;;;;;;;;;4993564;28;20029;-57
2021/10/02 03:05:47;;;;;;;9.65;3.42;;;;;;;;;;4992334;28;20030;-58
2021/10/02 03:08:13;;;;;;;8.00;3.30;;;;;;;;;;4989470;28;20026;-58
2021/10/02 03:10:38;;;;;;;7.75;3.28;;;;;;;;;;4998391;28;20053;-58
2021/10/02 03:13:11;;;;;;;9.60;3.50;;;;;;;;;;4990166;28;20073;-57
2021/10/02 03:15:36;;;;;;;12.07;3.95;;;;;;;;;;5013007;28;20035;-58
2021/10/02 03:18:02;;;;;;;8.48;3.30;;;;;;;;;;5012814;28;20345;-58
2021/10/02 03:20:27;;;;;;;8.73;3.40;;;;;;;;;;5005175;28;20042;-58
2021/10/02 03:22:53;;;;;;;8.13;3.33;;;;;;;;;;5014635;28;20021;-58
2021/10/02 03:25:18;;;;;;;7.43;3.30;;;;;;;;;;4992086;28;20027;-58
2021/10/02 03:27:44;;;;;;;9.68;3.20;;;;;;;;;;5006673;28;20408;-58
2021/10/02 03:30:09;;;;;;;9.73;3.45;;;;;;;;;;4994867;28;20029;-58
2021/10/02 03:32:34;;;;;;;6.93;3.25;;;;;;;;;;5008489;28;20041;-57
2021/10/02 03:34:59;;;;;;;11.05;4.05;;;;;;;;;;4990608;28;20047;-57
2021/10/02 03:37:25;;;;;;;8.15;3.38;;;;;;;;;;4996745;28;20034;-57
2021/10/02 03:39:50;;;;;;;10.35;3.28;;;;;;;;;;5003856;28;20048;-58
2021/10/02 03:42:16;;;;;;;7.28;3.08;;;;;;;;;;5003003;28;20050;-58
2021/10/02 03:44:42;;;;;;;6.03;2.80;;;;;;;;;;4991399;28;20109;-58
2021/10/02 03:47:08;;;;;;;7.50;3.30;;;;;;;;;;4996303;28;20097;-58
2021/10/02 03:49:33;;;;;;;8.90;3.15;;;;;;;;;;4988420;28;20022;-58
2021/10/02 03:51:59;;;;;;;9.15;3.80;;;;;;;;;;4997845;28;20054;-58
2021/10/02 03:54:24;;;;;;;6.50;3.17;;;;;;;;;;4992026;28;20030;-58
2021/10/02 03:56:49;;;;;;;10.15;3.80;;;;;;;;;;4996700;28;20090;-58
2021/10/02 03:59:14;;;;;;;6.60;3.63;;;;;;;;;;4998198;28;20358;-58
2021/10/02 04:01:39;;;;;;;7.05;4.00;;;;;;;;;;4997243;28;20503;-58
2021/10/02 04:04:05;;;;;;;9.45;4.53;;;;;;;;;;4993690;28;20056;-58
2021/10/02 04:06:30;;;;;;;11.40;4.20;;;;;;;;;;4996658;28;20034;-58
2021/10/02 04:08:55;;;;;;;10.88;4.28;;;;;;;;;;4997975;28;20283;-58
2021/10/02 04:11:20;;;;;;;9.77;4.03;;;;;;;;;;4994928;28;20037;-57
2021/10/02 04:13:45;;;;;;;12.15;3.90;;;;;;;;;;4991563;28;20521;-58
2021/10/02 04:16:11;;;;;;;9.68;4.00;;;;;;;;;;4997220;28;20034;-57
2021/10/02 04:18:36;;;;;;;6.95;3.47;;;;;;;;;;4999404;28;20458;-58
2021/10/02 04:21:01;;;;;;;11.43;3.70;;;;;;;;;;4994432;28;20042;-58
2021/10/02 04:23:27;;;;;;;9.68;3.38;;;;;;;;;;4998087;28;20049;-58
2021/10/02 04:25:52;;;;;;;9.35;3.40;;;;;;;;;;4996494;28;20038;-58
2021/10/02 04:28:17;;;;;;;7.72;3.25;;;;;;;;;;4998920;28;20028;-57
2021/10/02 04:30:43;;;;;;;8.98;3.42;;;;;;;;;;4998123;28;20048;-57
2021/10/02 04:33:08;;;;;;;7.65;2.92;;;;;;;;;;4989251;28;20477;-58
2021/10/02 04:35:34;;;;;;;8.02;3.13;;;;;;;;;;4989794;28;20058;-57
2021/10/02 04:37:59;;;;;;;5.80;2.80;;;;;;;;;;4994681;28;20358;-58
2021/10/02 04:40:24;;;;;;;8.05;3.58;;;;;;;;;;4987088;28;20130;-58
2021/10/02 04:42:50;;;;;;;9.95;3.30;;;;;;;;;;5000329;28;20244;-57
2021/10/02 04:45:18;;;;;;;6.72;3.15;;;;;;;;;;4989769;28;20473;-58
2021/10/02 04:47:44;;;;;;;6.40;2.80;;;;;;;;;;5000084;28;20603;-57
2021/10/02 04:50:09;;;;;;;8.90;3.03;;;;;;;;;;4992597;28;20037;-58
2021/10/02 04:52:34;;;;;;;6.57;3.03;;;;;;;;;;5000509;28;20396;-58
2021/10/02 04:55:00;;;;;;;6.60;2.72;;;;;;;;;;4990426;28;20029;-58
2021/10/02 04:57:25;;;;;;;7.22;2.80;;;;;;;;;;4995062;28;20476;-58
2021/10/02 04:59:50;;;;;;;7.03;2.97;;;;;;;;;;5002706;28;20644;-57
2021/10/02 05:02:15;;;;;;;6.72;2.72;;;;;;;;;;4996456;28;20436;-58
2021/10/02 05:04:41;;;;;;;7.78;3.00;;;;;;;;;;4990446;28;20041;-58
2021/10/02 05:07:06;;;;;;;9.30;2.78;;;;;;;;;;4996360;28;20038;-58
2021/10/02 05:09:31;;;;;;;6.78;2.72;;;;;;;;;;5001983;28;20025;-58
2021/10/02 05:11:56;;;;;;;10.98;2.90;;;;;;;;;;4993621;28;20046;-58
2021/10/02 05:14:22;;;;;;;7.47;3.28;;;;;;;;;;4996090;28;20026;-58
2021/10/02 05:16:47;;;;;;;7.93;2.78;;;;;;;;;;5000218;28;20042;-58
2021/10/02 05:19:12;;;;;;;8.68;2.80;;;;;;;;;;4998884;28;20626;-59
2021/10/02 05:21:37;;;;;;;10.00;2.80;;;;;;;;;;5003184;28;20392;-58
2021/10/02 05:24:03;;;;;;;9.23;3.25;;;;;;;;;;4998234;28;20022;-59
2021/10/02 05:26:28;;;;;;;8.27;2.90;;;;;;;;;;4993334;28;20034;-59
2021/10/02 05:28:53;;;;;;;9.05;3.17;;;;;;;;;;4992644;28;20092;-58
2021/10/02 05:31:18;;;;;;;6.82;2.88;;;;;;;;;;5003572;28;20531;-59
2021/10/02 05:33:44;;;;;;;10.10;3.65;;;;;;;;;;5002001;28;20029;-59
2021/10/02 05:36:09;;;;;;;9.82;3.42;;;;;;;;;;4993643;28;20180;-58
2021/10/02 05:38:34;;;;;;;14.48;3.30;;;;;;;;;;4997080;28;20128;-58
2021/10/02 05:40:59;;;;;;;8.98;3.60;;;;;;;;;;4993143;28;20088;-60
2021/10/02 05:43:25;;;;;;;10.77;3.53;;;;;;;;;;5001138;28;20067;-58
2021/10/02 05:45:50;;;;;;;8.63;3.13;;;;;;;;;;4991786;28;20068;-60
2021/10/02 05:48:15;;;;;;;7.88;3.17;;;;;;;;;;4994021;28;20023;-59
2021/10/02 05:50:41;;;;;;;8.30;3.22;;;;;;;;;;5012091;28;20381;-59
2021/10/02 05:53:06;;;;;;;8.27;3.28;;;;;;;;;;4998904;28;20335;-59
2021/10/02 05:55:31;;;;;;;11.60;3.58;;;;;;;;;;4991785;28;20121;-59
2021/10/02 05:57:56;;;;;;;9.07;3.53;;;;;;;;;;4991276;28;20126;-59
2021/10/02 06:00:21;;;;;;;10.15;3.00;;;;;;;;;;4990140;28;20141;-59
2021/10/02 06:02:47;;;;;;;10.40;3.95;;;;;;;;;;4997379;28;20116;-59
2021/10/02 06:05:12;;;;;;;7.55;3.53;;;;;;;;;;4999548;28;20052;-59
2021/10/02 06:07:40;;;;;;;8.60;3.47;;;;;;;;;;4999036;28;20117;-59
2021/10/02 06:10:05;;;;;;;7.40;3.08;;;;;;;;;;4997629;28;20034;-59
2021/10/02 06:12:33;;;;;;;7.70;3.38;;;;;;;;;;4996198;28;20076;-59
2021/10/02 06:14:59;;;;;;;8.77;3.30;;;;;;;;;;4988172;28;20080;-61
2021/10/02 06:17:24;;;;;;;5.63;2.95;;;;;;;;;;4994662;28;20563;-59
2021/10/02 06:19:49;;;;;;;9.50;3.05;;;;;;;;;;5003568;28;20639;-59
2021/10/02 06:22:14;;;;;;;10.05;3.03;;;;;;;;;;5002361;28;20038;-58
2021/10/02 06:24:40;;;;;;;8.23;3.25;;;;;;;;;;4995745;28;20031;-58
2021/10/02 06:27:05;;;;;;;16.55;3.55;;;;;;;;;;5002223;28;20042;-58
2021/10/02 06:29:30;;;;;;;8.30;3.47;;;;;;;;;;5006003;28;20089;-59
2021/10/02 06:31:55;;;;;;;9.85;3.47;;;;;;;;;;4988419;28;20611;-59
2021/10/02 06:34:21;;;;;;;11.55;3.33;;;;;;;;;;4998034;28;20084;-58
2021/10/02 06:36:46;;;;;;;8.68;3.45;;;;;;;;;;5009981;28;20153;-58
2021/10/02 06:39:11;;;;;;;10.25;3.53;;;;;;;;;;4992412;28;20040;-58
2021/10/02 06:41:36;;;;;;;8.48;3.67;;;;;;;;;;4988964;28;20073;-58
2021/10/02 06:44:02;;;;;;;8.30;3.80;;;;;;;;;;4986384;28;20132;-58
2021/10/02 06:46:27;;;;;;;8.38;3.83;;;;;;;;;;4991220;28;20037;-60
2021/10/02 06:48:52;;;;;;;9.00;4.32;;;;;;;;;;4999779;28;20092;-58
2021/10/02 06:51:17;;;;;;;10.48;4.00;;;;;;;;;;4991415;28;20145;-59
2021/10/02 06:53:43;;;;;;;9.38;3.80;;;;;;;;;;4991620;28;20053;-59
2021/10/02 06:56:08;;;;;;;10.05;3.92;;;;;;;;;;4989689;28;20209;-59
2021/10/02 06:58:33;;;;;;;8.90;3.72;;;;;;;;;;4989557;28;20030;-59
2021/10/02 07:00:58;;;;;;;7.63;4.45;;;;;;;;;;4991935;28;20042;-59
2021/10/02 07:03:24;;;;;;;9.50;4.28;;;;;;;;;;4998575;28;20492;-59
2021/10/02 07:05:49;;;;;;;7.95;3.88;;;;;;;;;;4995397;28;20048;-59
2021/10/02 07:08:14;;;;;;;12.18;4.47;;;;;;;;;;4995097;28;20476;-59
2021/10/02 07:10:40;;;;;;;6.32;3.70;;;;;;;;;;4991502;28;20042;-59
2021/10/02 07:13:05;;;;;;;9.27;4.50;;;;;;;;;;4993391;28;20045;-58
2021/10/02 07:15:30;;;;;;;7.85;3.85;;;;;;;;;;4986537;28;20046;-58
2021/10/02 07:17:56;;;;;;;9.02;4.18;;;;;;;;;;5013250;28;20030;-58
2021/10/02 07:20:23;;;;;;;9.45;3.80;;;;;;;;;;5003214;28;20399;-58
2021/10/02 07:22:48;;;;;;;9.13;4.05;;;;;;;;;;4995396;28;20015;-60
2021/10/02 07:25:13;;;;;;;7.43;3.90;;;;;;;;;;4994751;28;20061;-58
2021/10/02 07:27:39;;;;;;;7.13;3.67;;;;;;;;;;4993887;28;20449;-58
2021/10/02 07:30:04;;;;;;;7.57;3.70;;;;;;;;;;4987863;28;20060;-59
2021/10/02 07:32:30;;;;;;;11.32;4.20;;;;;;;;;;5001306;28;20054;-59
2021/10/02 07:34:55;;;;;;;5.60;3.50;;;;;;;;;;4999818;28;20014;-59
2021/10/02 07:37:20;;;;;;;7.25;3.83;;;;;;;;;;4990271;28;20117;-60
2021/10/02 07:39:45;;;;;;;6.72;4.07;;;;;;;;;;4988726;28;20026;-59
2021/10/02 07:42:11;;;;;;;10.88;4.20;;;;;;;;;;5002763;28;20046;-59
2021/10/02 07:44:36;;;;;;;10.05;4.32;;;;;;;;;;5005719;28;20113;-61
2021/10/02 07:47:02;;;;;;;6.32;4.30;;;;;;;;;;5007966;28;20037;-59
2021/10/02 07:49:29;;;;;;;8.93;4.63;;;;;;;;;;5023351;28;20013;-59
2021/10/02 07:51:54;;;;;;;8.68;4.65;;;;;;;;;;5021409;28;20135;-58
2021/10/02 07:54:19;;;;;;;7.53;4.85;;;;;;;;;;5020304;28;20049;-59
2021/10/02 07:56:45;;;;;;;8.57;4.43;;;;;;;;;;5018654;28;20036;-58
2021/10/02 07:59:13;;;;;;;7.82;4.38;;;;;;;;;;5007713;28;20112;-59
2021/10/02 08:01:38;;;;;;;7.82;4.38;;;;;;;;;;5015083;28;20034;-59
2021/10/02 08:04:04;;;;;;;6.10;4.00;;;;;;;;;;5014212;28;20480;-59
2021/10/02 08:06:30;;;;;;;6.55;3.92;;;;;;;;;;5012179;28;20038;-59
2021/10/02 08:08:55;;;;;;;7.22;4.20;;;;;;;;;;5006724;28;20028;-60
2021/10/02 08:11:20;;;;;;;8.15;3.67;;;;;;;;;;5024437;28;20522;-60
2021/10/02 08:13:45;;;;;;;6.63;3.95;;;;;;;;;;5004915;28;20041;-57
2021/10/02 08:16:11;;;;;;;8.07;3.63;;;;;;;;;;5006130;28;20113;-59
2021/10/02 08:18:38;;;;;;;5.50;3.80;;;;;;;;;;5020913;28;20038;-59
2021/10/02 08:21:03;;;;;;;9.15;3.95;;;;;;;;;;5035435;28;20033;-59
2021/10/02 08:23:29;;;;;;;6.72;3.55;;;;;;;;;;5018803;28;20024;-57
2021/10/02 08:25:54;;;;;;;4.78;3.40;;;;;;;;;;5008494;28;20064;-59
2021/10/02 08:28:19;;;;;;;4.80;3.40;;;;;;;;;;5006684;28;20033;-59
2021/10/02 08:30:45;;;;;;;5.85;3.55;;;;;;;;;;5017886;28;20037;-59
2021/10/02 08:33:11;;;;;;;6.20;3.45;;;;;;;;;;5023052;28;20966;-59
2021/10/02 08:35:37;;;;;;;6.50;3.30;;;;;;;;;;5008278;28;20044;-59
2021/10/02 08:38:02;;;;;;;6.00;3.50;;;;;;;;;;5008410;28;20049;-59
2021/10/02 08:40:27;;;;;;;4.53;3.15;;;;;;;;;;5011058;28;20030;-58
2021/10/02 08:42:52;;;;;;;4.63;3.30;;;;;;;;;;5015877;28;20497;-59
2021/10/02 08:45:17;;;;;;;5.25;3.28;;;;;;;;;;5021532;28;20032;-59
2021/10/02 08:47:43;;;;;;;4.25;2.72;;;;;;;;;;5011699;28;20048;-58
2021/10/02 08:50:09;;;;;;;8.35;2.88;;;;;;;;;;5013498;28;20156;-58
2021/10/02 08:52:34;;;;;;;4.47;2.50;;;;;;;;;;5011889;28;20464;-58
2021/10/02 08:55:00;;;;;;;4.15;2.72;;;;;;;;;;5006808;28;20049;-58
2021/10/02 08:57:25;;;;;;;4.28;2.60;;;;;;;;;;5017522;28;20038;-58
2021/10/02 08:59:51;;;;;;;6.28;2.45;;;;;;;;;;5029110;28;20471;-58
2021/10/02 09:02:16;;;;;;;4.43;2.50;;;;;;;;;;5011098;28;20034;-58
2021/10/02 09:04:42;;;;;;;5.25;2.88;;;;;;;;;;5010471;28;20038;-58
2021/10/02 09:07:07;;;;;;;3.63;2.60;;;;;;;;;;5016427;28;20037;-58
2021/10/02 09:09:32;;;;;;;4.22;2.63;;;;;;;;;;5017843;28;20855;-58
2021/10/02 09:11:58;;;;;;;4.00;2.63;;;;;;;;;;5014139;28;20038;-58
2021/10/02 09:14:23;;;;;;;4.00;2.50;;;;;;;;;;5019701;28;20652;-58
2021/10/02 09:16:48;;;;;;;7.38;2.63;;;;;;;;;;5011421;28;20041;-58
2021/10/02 09:19:13;;;;;;;4.55;2.90;;;;;;;;;;5011806;28;20022;-58
2021/10/02 09:21:53;;;;;;;3.70;2.67;;;;;;;;;;5008390;28;20045;-58
2021/10/02 09:24:19;;;;;;;5.93;2.88;;;;;;;;;;5013339;28;20032;-58
2021/10/02 09:26:47;;;;;;;4.25;3.17;;;;;;;;;;5005850;28;20140;-58
2021/10/02 09:29:14;;;;;;;6.80;3.75;;;;;;;;;;5015893;28;20030;-59
2021/10/02 09:31:39;;;;;;;5.00;2.85;;;;;;;;;;5013358;28;20121;-57
2021/10/02 09:34:04;;;;;;;8.75;3.17;;;;;;;;;;5009854;28;20125;-57
2021/10/02 09:36:30;;;;;;;4.25;2.78;;;;;;;;;;5014347;28;20116;-56
2021/10/02 09:38:55;;;;;;;5.25;2.83;;;;;;;;;;5035803;28;20033;-56
2021/10/02 09:41:20;;;;;;;14.90;4.55;;;;;;;;;;5014301;28;20436;-57
2021/10/02 09:43:47;;;;;;;6.22;2.90;;;;;;;;;;5024602;28;20021;-57
2021/10/02 09:46:12;;;;;;;4.45;3.05;;;;;;;;;;5018229;28;20033;-56
2021/10/02 09:48:37;;;;;;;4.95;3.33;;;;;;;;;;5012456;28;20032;-56
2021/10/02 09:51:06;;;;;;;4.80;3.05;;;;;;;;;;5018257;28;20056;-56
2021/10/02 09:53:41;;;;;;;4.85;3.35;;;;;;;;;;5032732;28;20025;-56
2021/10/02 09:56:09;;;;;;;4.93;3.08;;;;;;;;;;5022080;28;20037;-57
2021/10/02 09:58:35;;;;;;;7.05;3.38;;;;;;;;;;5018352;28;20057;-57
2021/10/02 10:01:04;;;;;;;6.05;3.90;;;;;;;;;;5023824;28;20116;-56
2021/10/02 10:03:39;;;;;;;4.75;3.60;;;;;;;;;;5015654;28;20049;-56
2021/10/02 10:06:12;;;;;;;6.40;3.95;;;;;;;;;;5018992;28;20040;-57
2021/10/02 10:08:37;;;;;;;5.97;3.83;;;;;;;;;;5027278;28;20236;-57
2021/10/02 10:11:10;;;;;;;6.70;4.45;;;;;;;;;;5024215;28;20171;-56
2021/10/02 10:13:35;;;;;;;7.13;4.90;;;;;;;;;;5018939;28;20038;-57
2021/10/02 10:16:01;;;;;;;6.68;4.68;;;;;;;;;;5014411;28;20091;-56
2021/10/02 10:18:27;;;;;;;6.00;4.80;;;;;;;;;;5012592;28;20733;-57
2021/10/02 10:20:53;;;;;;;7.65;4.72;;;;;;;;;;5013756;28;20171;-59
2021/10/02 10:23:27;;;;;;;7.32;4.93;;;;;;;;;;5016527;28;20108;-59
2021/10/02 10:25:53;;;;;;;7.72;4.80;;;;;;;;;;5024501;28;20034;-59
2021/10/02 10:28:19;;;;;;;6.47;4.18;;;;;;;;;;5016954;28;20030;-59
2021/10/02 10:30:47;;;;;;;5.72;4.22;;;;;;;;;;5014985;28;20179;-58
2021/10/02 10:33:12;;;;;;;6.55;4.70;;;;;;;;;;5013203;28;20041;-58
2021/10/02 10:35:38;;;;;;;6.13;4.53;;;;;;;;;;5027659;28;20514;-58
2021/10/02 10:38:03;;;;;;;6.72;4.78;;;;;;;;;;5016771;28;20025;-57
2021/10/02 10:40:28;;;;;;;6.10;4.35;;;;;;;;;;5026319;28;20037;-58
2021/10/02 10:42:54;;;;;;;5.82;4.60;;;;;;;;;;5015090;28;20028;-58
2021/10/02 10:45:19;;;;;;;5.97;4.38;;;;;;;;;;5010267;28;20030;-58
2021/10/02 10:47:45;;;;;;;7.35;4.32;;;;;;;;;;5012494;28;20108;-63
2021/10/02 10:50:10;;;;;;;7.78;4.78;;;;;;;;;;5009986;28;20092;-58
2021/10/02 10:52:36;;;;;;;8.27;4.70;;;;;;;;;;5022161;28;20037;-58
2021/10/02 10:55:01;;;;;;;6.70;4.70;;;;;;;;;;5016713;28;20022;-58
2021/10/02 10:57:45;;;;;;;9.68;4.88;;;;;;;;;;5019089;28;20032;-58
2021/10/02 11:00:29;;;;;;;7.63;4.72;;;;;;;;;;5020650;28;20029;-58
2021/10/02 11:02:55;;;;;;;8.43;4.80;;;;;;;;;;5023240;28;20483;-58
2021/10/02 11:05:35;;;;;;;8.10;4.57;;;;;;;;;;5015783;28;20461;-58
2021/10/02 11:08:01;;;;;;;6.53;4.57;;;;;;;;;;5019562;28;20091;-58
2021/10/02 11:10:42;;;;;;;8.00;4.10;;;;;;;;;;5012054;28;20049;-58
2021/10/02 11:13:27;;;;;;;9.20;4.65;;;;;;;;;;5010090;28;20084;-58
2021/10/02 11:15:53;;;;;;;6.50;4.32;;;;;;;;;;5016232;28;20580;-58
2021/10/02 11:18:37;;;;;;;6.70;4.60;;;;;;;;;;5013021;28;20171;-59
2021/10/02 11:21:02;;;;;;;6.85;4.60;;;;;;;;;;5005101;28;20037;-59
2021/10/02 11:23:40;;;;;;;5.65;4.40;;;;;;;;;;5015475;28;20032;-58
2021/10/02 11:26:12;;;;;;;6.78;4.47;;;;;;;;;;5009416;28;20354;-58
2021/10/02 11:28:38;;;;;;;7.65;4.20;;;;;;;;;;5005397;28;20363;-58
2021/10/02 11:31:13;;;;;;;5.93;4.18;;;;;;;;;;5015207;28;20037;-58
2021/10/02 11:33:47;;;;;;;5.88;4.07;;;;;;;;;;5011236;28;20025;-58
2021/10/02 11:36:28;;;;;;;5.95;4.35;;;;;;;;;;5010777;28;20036;-58
2021/10/02 11:39:08;;;;;;;7.10;4.28;;;;;;;;;;5013590;28;20380;-58
2021/10/02 11:41:35;;;;;;;7.22;4.30;;;;;;;;;;5005095;28;20045;-58
2021/10/02 11:44:00;;;;;;;6.95;3.80;;;;;;;;;;5013813;28;20030;-57
2021/10/02 11:46:25;;;;;;;6.82;4.40;;;;;;;;;;5014133;28;20119;-57
2021/10/02 11:48:51;;;;;;;9.88;3.90;;;;;;;;;;5011662;28;20025;-58
2021/10/02 11:51:24;;;;;;;6.35;4.47;;;;;;;;;;5019919;28;20041;-57
2021/10/02 11:53:50;;;;;;;8.48;4.78;;;;;;;;;;5011068;28;20126;-57
2021/10/02 11:56:19;;;;;;;8.13;4.28;;;;;;;;;;5015316;28;20054;-57
2021/10/02 11:58:45;;;;;;;6.50;4.00;;;;;;;;;;5013508;28;20025;-57
2021/10/02 12:01:19;;;;;;;6.57;4.28;;;;;;;;;;5020354;28;20429;-57
2021/10/02 12:03:45;;;;;;;6.70;4.65;;;;;;;;;;5009011;28;20341;-57
2021/10/02 12:06:10;;;;;;;5.25;3.97;;;;;;;;;;5009762;28;20456;-57
2021/10/02 12:08:35;;;;;;;8.73;4.55;;;;;;;;;;5005620;28;20025;-57
2021/10/02 12:11:04;;;;;;;7.60;4.30;;;;;;;;;;5019762;28;20045;-57
2021/10/02 12:13:31;;;;;;;;;;;;;;;;;;5012237;28;20647;-57
2021/10/02 12:16:14;;;;;;;10.20;5.35;;;;;;;;;;5016119;28;20565;-58
2021/10/02 12:18:50;;;;;;;8.10;4.30;;;;;;;;;;5015399;28;20022;-57
2021/10/02 12:21:21;;;;;;;7.47;4.20;;;;;;;;;;5018268;28;20029;-57
2021/10/02 12:23:54;;;;;;;6.18;4.10;;;;;;;;;;5018121;28;20064;-57
2021/10/02 12:26:19;;;;;;;8.38;4.00;;;;;;;;;;5008565;28;20049;-57
2021/10/02 12:28:44;;;;;;;7.72;4.20;;;;;;;;;;5014466;28;20026;-57
2021/10/02 12:31:10;;;;;;;7.38;4.53;;;;;;;;;;5014414;28;20116;-57
2021/10/02 12:33:35;;;;;;;6.80;4.28;;;;;;;;;;5013361;28;20863;-57
2021/10/02 12:36:00;;;;;;;8.52;3.90;;;;;;;;;;5017935;28;20391;-57
2021/10/02 12:38:37;;;;;;;7.30;3.92;;;;;;;;;;5017516;28;20475;-58
2021/10/02 12:41:02;;;;;;;7.25;3.75;;;;;;;;;;5020598;28;20029;-58
2021/10/02 12:43:31;;;;;;;7.53;3.83;;;;;;;;;;5018397;28;20025;-57
2021/10/02 12:45:56;;;;;;;6.55;4.28;;;;;;;;;;5018696;28;20107;-58
2021/10/02 12:48:21;;;;;;;5.90;3.90;;;;;;;;;;5015485;28;20029;-58
2021/10/02 12:50:46;;;;;;;6.93;3.90;;;;;;;;;;5016166;28;20037;-57
2021/10/02 12:53:12;;;;;;;7.57;3.60;;;;;;;;;;5016989;28;20493;-57
2021/10/02 12:55:37;;;;;;;8.73;3.42;;;;;;;;;;5022514;28;20037;-57
2021/10/02 12:58:02;;;;;;;5.38;3.55;;;;;;;;;;5013211;28;20463;-57
2021/10/02 13:00:29;;;;;;;6.38;3.60;;;;;;;;;;5017263;28;20436;-57
2021/10/02 13:02:55;;;;;;;5.82;3.45;;;;;;;;;;5020924;28;20387;-57
2021/10/02 13:05:21;;;;;;;6.85;3.30;;;;;;;;;;5019708;28;21586;-57
2021/10/02 13:07:47;;;;;;;9.38;3.20;;;;;;;;;;5022054;28;20737;-57
2021/10/02 13:10:13;;;;;;;6.07;2.40;;;;;;;;;;5017713;28;20048;-57
2021/10/02 13:12:41;;;;;;;5.63;2.67;;;;;;;;;;5021076;28;20112;-57
2021/10/02 13:15:07;;;;;;;5.57;2.88;;;;;;;;;;5020032;28;20080;-57
2021/10/02 13:17:33;;;;;;;8.43;2.67;;;;;;;;;;5016739;28;20037;-57
2021/10/02 13:20:08;;;;;;;4.93;2.58;;;;;;;;;;5024630;28;20029;-57
2021/10/02 13:22:37;;;;;;;7.85;2.90;;;;;;;;;;5028785;28;20113;-57
2021/10/02 13:25:06;;;;;;;3.67;2.30;;;;;;;;;;5023229;28;20735;-57
2021/10/02 13:27:32;;;;;;;5.45;2.70;;;;;;;;;;5025759;28;20034;-57
2021/10/02 13:30:01;;;;;;;7.47;2.85;;;;;;;;;;5025718;28;20052;-57
2021/10/02 13:32:26;;;;;;;5.75;2.70;;;;;;;;;;5019504;28;20025;-58
2021/10/02 13:34:52;;;;;;;7.78;2.70;;;;;;;;;;5021784;28;20032;-58
2021/10/02 13:37:24;;;;;;;6.10;2.42;;;;;;;;;;5019145;28;20021;-57
2021/10/02 13:39:51;;;;;;;5.80;2.70;;;;;;;;;;5053545;28;20675;-57
2021/10/02 13:42:17;;;;;;;6.93;2.53;;;;;;;;;;5023844;28;20009;-57
2021/10/02 13:44:42;;;;;;;7.15;2.63;;;;;;;;;;5026209;28;20028;-57
2021/10/02 13:47:09;;;;;;;6.30;2.65;;;;;;;;;;5026966;28;20022;-57
2021/10/02 13:49:34;;;;;;;7.53;3.05;;;;;;;;;;5007821;28;20026;-57
2021/10/02 13:51:59;;;;;;;6.25;2.85;;;;;;;;;;5008347;28;20042;-57
2021/10/02 13:54:25;;;;;;;7.82;3.00;;;;;;;;;;5012229;28;20592;-57
2021/10/02 13:56:51;;;;;;;7.10;2.90;;;;;;;;;;5020299;28;20970;-54
2021/10/02 13:59:16;;;;;;;5.53;2.53;;;;;;;;;;5019554;28;20448;-54
2021/10/02 14:01:41;;;;;;;7.95;2.90;;;;;;;;;;5022839;28;20022;-54
2021/10/02 14:04:06;;;;;;;4.90;2.53;;;;;;;;;;5022985;28;20031;-55
2021/10/02 14:06:32;;;;;;;6.05;2.50;;;;;;;;;;5018582;28;20123;-53
2021/10/02 14:08:57;;;;;;;6.20;2.33;;;;;;;;;;5025053;28;21004;-54
2021/10/02 14:11:22;;;;;;;8.45;2.70;;;;;;;;;;5021157;28;20131;-54
2021/10/02 14:13:48;;;;;;;4.53;2.50;;;;;;;;;;5025468;28;20057;-54
2021/10/02 14:16:13;;;;;;;6.25;2.53;;;;;;;;;;5019636;28;20112;-54
2021/10/02 14:18:38;;;;;;;6.20;2.40;;;;;;;;;;5016260;28;20635;-54
2021/10/02 14:21:03;;;;;;;5.18;2.60;;;;;;;;;;5020142;28;20029;-54
2021/10/02 14:23:29;;;;;;;4.32;2.58;;;;;;;;;;5030850;28;20032;-54
2021/10/02 14:25:54;;;;;;;5.43;2.40;;;;;;;;;;5021345;28;20041;-54
2021/10/02 14:28:19;;;;;;;4.15;2.38;;;;;;;;;;5020300;28;20256;-55
2021/10/02 14:30:44;;;;;;;6.05;2.42;;;;;;;;;;5029282;28;20044;-54
2021/10/02 14:33:10;;;;;;;6.13;2.35;;;;;;;;;;5021180;28;20069;-55
2021/10/02 14:35:36;;;;;;;6.22;2.47;;;;;;;;;;5018333;28;20056;-55
2021/10/02 14:38:01;;;;;;;4.15;2.45;;;;;;;;;;5023825;28;20029;-55
2021/10/02 14:40:27;;;;;;;4.53;2.20;;;;;;;;;;5018782;28;20026;-54
2021/10/02 14:42:52;;;;;;;6.65;2.53;;;;;;;;;;5026088;28;20033;-54
2021/10/02 14:45:20;;;;;;;7.35;3.20;;;;;;;;;;5037762;28;20425;-55
2021/10/02 14:47:46;;;;;;;5.03;2.28;;;;;;;;;;5018374;28;20121;-54
2021/10/02 14:50:12;;;;;;;6.22;2.58;;;;;;;;;;5019253;28;20100;-54
2021/10/02 14:52:37;;;;;;;7.07;2.25;;;;;;;;;;5023143;28;20484;-54
2021/10/02 14:55:03;;;;;;;8.05;2.33;;;;;;;;;;5016987;28;20025;-54
2021/10/02 14:57:28;;;;;;;3.47;2.13;;;;;;;;;;5017359;28;20026;-54
2021/10/02 14:59:54;;;;;;;3.72;2.17;;;;;;;;;;5034724;28;20029;-54
2021/10/02 15:02:23;;;;;;;4.50;2.05;;;;;;;;;;5042028;28;20029;-53
2021/10/02 15:04:49;;;;;;;6.40;2.20;;;;;;;;;;5020152;28;20056;-53
2021/10/02 15:07:14;;;;;;;4.22;2.10;;;;;;;;;;5023473;28;20025;-56
2021/10/02 15:09:39;;;;;;;4.70;2.00;;;;;;;;;;5019727;28;20105;-54
2021/10/02 15:12:04;;;;;;;3.35;1.90;;;;;;;;;;5021111;28;20056;-54
2021/10/02 15:14:30;;;;;;;4.13;2.00;;;;;;;;;;5022309;28;20049;-53
2021/10/02 15:16:55;;;;;;;4.03;2.15;;;;;;;;;;5014910;28;20402;-54
2021/10/02 15:19:21;;;;;;;4.03;1.83;;;;;;;;;;5023020;28;20055;-53
2021/10/02 15:21:55;;;;;;;5.85;2.10;;;;;;;;;;5020061;28;20129;-54
2021/10/02 15:24:21;;;;;;;4.65;2.30;;;;;;;;;;5030950;28;20730;-54
2021/10/02 15:26:46;;;;;;;5.20;2.25;;;;;;;;;;5021766;28;20479;-54
2021/10/02 15:29:11;;;;;;;6.05;2.20;;;;;;;;;;5023178;28;20036;-53
2021/10/02 15:31:36;;;;;;;2.92;1.90;;;;;;;;;;5015803;28;20368;-55
2021/10/02 15:34:05;;;;;;;3.28;2.00;;;;;;;;;;5020682;28;20506;-54
2021/10/02 15:36:32;;;;;;;3.50;1.75;;;;;;;;;;5015311;28;20063;-54
2021/10/02 15:38:58;;;;;;;5.40;1.90;;;;;;;;;;5021005;28;20029;-54